Latest Weather Observations for Broome

IDW60801

Issued at 8:35 pm WST Wednesday 23 April 2014 (issued every 30 minutes, with the page automatically refreshed every 10 minutes)

About weather observations | Map of weather stations | Latest weather observations for WA | Other Formats
Station Details ID: 003003 Name: BROOME AIRPORT Lat: -17.95 Lon: 122.24 Height: 7.42 m
Data from the previous 72 hours. | See also: Recent months at Broome
Date/Time
WST
Temp
°C
App
Temp
°C
Dew
Point
Rel
Hum
%
Delta-T
°C
Wind Press
QNH
hPa
Press
MSL
hPa
Rain
since 9 am
mm
Dir
 
Spd
km/h
Gust
km/h
Spd
kts
Gust
kts
23/08:30pm 24.1 28.9 22.2 89 1.3 NNW 0 0 0 0 1010.6 - 0.0
23/08:00pm 24.5 29.3 22.1 86 1.6 SSW 0 0 0 0 1010.4 - 0.0
23/07:30pm 26.3 30.3 22.8 81 2.4 WNW 6 9 3 5 1010.1 - 0.0
23/07:00pm 28.4 31.5 22.8 71 3.8 SW 11 13 6 7 1009.7 - 0.0
23/06:30pm 28.8 31.7 22.5 68 4.3 WSW 11 15 6 8 1009.2 - 0.0
23/06:00pm 29.3 32.3 22.7 67 4.5 WSW 11 15 6 8 1008.9 1008.8 0.0
23/05:30pm 30.1 33.3 23.0 65 4.9 W 11 17 6 9 1008.4 - 0.0
23/05:00pm 31.6 33.3 21.0 53 7.1 WSW 13 17 7 9 1007.9 - 0.0
23/04:30pm 32.5 33.0 19.3 45 8.7 W 15 20 8 11 1007.7 - 0.0
23/04:00pm 32.6 31.9 17.3 40 9.8 W 17 20 9 11 1007.4 - 0.0
23/03:30pm 33.2 33.8 20.3 46 8.6 W 17 20 9 11 1007.4 - 0.0
23/03:00pm 33.2 33.9 19.6 44 9.0 WNW 15 20 8 11 1007.4 1007.3 0.0
23/02:30pm 36.3 33.5 7.1 16 16.2 SSE 11 17 6 9 1007.5 - 0.0
23/02:00pm 35.8 33.5 7.6 17 15.8 S 9 15 5 8 1007.6 - 0.0
23/01:30pm 36.0 33.1 6.7 16 16.2 SSE 11 17 6 9 1007.9 - 0.0
23/01:00pm 36.0 33.4 7.7 17 15.9 SE 11 15 6 8 1008.3 - 0.0
23/12:30pm 35.0 32.1 8.2 19 15.1 SE 13 17 7 9 1008.9 - 0.0
23/12:00pm 34.5 32.0 9.6 21 14.3 SSE 13 19 7 10 1009.5 1009.4 0.0
23/11:30am 34.7 32.2 9.7 21 14.4 SE 13 19 7 10 1010.1 - 0.0
23/11:00am 33.2 31.0 10.9 25 13.0 SE 13 17 7 9 1010.8 - 0.0
23/10:30am 33.1 29.8 9.6 23 13.4 ESE 17 20 9 11 1011.2 - 0.0
23/10:00am 32.1 29.5 9.2 24 12.9 E 13 17 7 9 1011.4 - 0.0
23/09:30am 30.8 28.7 12.3 32 10.9 E 15 19 8 10 1011.7 - 0.0
23/09:00am 29.7 28.2 13.0 35 9.9 E 13 15 7 8 1011.9 1011.8 0.0
23/08:30am 28.0 26.9 11.9 36 9.3 E 9 13 5 7 1011.9 - 0.0
23/08:00am 26.2 25.7 13.7 46 7.4 E 9 15 5 8 1011.8 - 0.0
23/07:30am 23.9 24.3 15.2 58 5.2 E 7 9 4 5 1011.7 - 0.0
23/07:00am 22.2 23.5 17.5 74 2.9 E 7 11 4 6 1011.6 - 0.0
23/06:30am 19.4 22.3 18.3 93 0.7 CALM 0 7 0 4 1011.4 - 0.0
23/06:00am 18.3 20.9 17.5 95 0.5 CALM 0 0 0 0 1011.2 1011.1 0.0
23/05:30am 18.7 20.3 18.2 97 0.3 N 7 9 4 5 1010.8 - 0.0
23/05:00am 18.6 21.3 17.8 95 0.5 NNW 0 0 0 0 1010.6 - 0.0
23/04:30am 19.1 21.9 18.0 93 0.7 CALM 0 0 0 0 1010.6 - 0.0
23/04:00am 20.0 23.3 19.2 95 0.5 CALM 0 0 0 0 1010.5 - 0.0
23/03:30am 20.6 23.8 19.7 95 0.6 W 2 7 1 4 1010.6 - 0.0
23/03:00am 20.0 23.4 19.4 96 0.4 CALM 0 0 0 0 1010.7 1010.6 0.0
23/02:30am 20.5 24.3 20.2 98 0.2 CALM 0 0 0 0 1010.8 - 0.0
23/02:00am 20.0 23.3 19.2 95 0.5 CALM 0 0 0 0 1010.8 - 0.0
23/01:30am 20.0 23.3 19.2 95 0.5 CALM 0 0 0 0 1010.9 - 0.0
23/01:00am 20.9 24.7 20.1 95 0.5 N 0 0 0 0 1011.3 - 0.0
23/12:30am 21.0 24.7 19.9 93 0.7 CALM 0 0 0 0 1011.6 - 0.0
23/12:00am 21.2 25.1 20.3 95 0.6 N 0 0 0 0 1011.8 1011.7 0.0
 
Date/Time
WST
Temp
°C
App
Temp
°C
Dew
Point
Rel
Hum
%
Delta-T
°C
Wind Press
QNH
hPa
Press
MSL
hPa
Rain
since 9 am
mm
Dir
 
Spd
km/h
Gust
km/h
Spd
kts
Gust
kts
22/11:30pm 21.6 25.6 20.5 93 0.7 CALM 0 0 0 0 1011.8 - 0.0
22/11:00pm 22.3 25.4 21.1 93 0.8 N 6 7 3 4 1011.9 - 0.0
22/10:30pm 24.5 28.1 22.1 86 1.6 NNW 6 9 3 5 1011.7 - 0.0
22/10:00pm 24.6 29.4 22.2 86 1.6 CALM 0 0 0 0 1011.6 - 0.0
22/09:30pm 28.1 31.8 23.3 75 3.3 S 9 13 5 7 1011.7 - 0.0
22/09:00pm 28.4 30.9 22.5 70 4.0 SSW 13 17 7 9 1011.6 1011.5 0.0
22/08:30pm 28.4 30.3 22.0 68 4.3 SSW 15 19 8 10 1011.4 - 0.0
22/08:00pm 28.3 31.2 22.4 70 4.0 SSW 11 15 6 8 1011.2 - 0.0
22/07:30pm 28.5 31.0 22.5 70 4.1 SSW 13 17 7 9 1010.9 - 0.0
22/07:00pm 28.6 30.9 22.7 70 4.0 SSW 15 17 8 9 1010.6 - 0.0
22/06:30pm 28.6 31.3 22.9 71 3.9 SW 13 17 7 9 1010.3 - 0.0
22/06:00pm 29.2 31.5 22.1 65 4.8 WSW 13 17 7 9 1010.0 1009.9 0.0
22/05:30pm 29.8 32.1 22.0 63 5.3 WSW 13 19 7 10 1009.6 - 0.0
22/05:00pm 31.0 32.3 21.7 57 6.3 W 17 22 9 12 1009.3 - 0.0
22/04:30pm 31.6 33.0 21.0 53 7.1 W 15 20 8 11 1009.0 - 0.0
22/04:00pm 32.3 32.3 19.0 45 8.7 W 17 22 9 12 1008.8 - 0.0
22/03:30pm 32.8 31.9 16.9 38 10.1 W 17 22 9 12 1008.8 - 0.0
22/03:00pm 33.3 32.5 17.0 37 10.4 W 17 19 9 10 1008.8 1008.7 0.0
22/02:30pm 33.7 32.9 16.1 34 11.1 W 15 20 8 11 1008.9 - 0.0
22/02:00pm 33.7 33.0 16.3 35 11.0 W 15 20 8 11 1009.2 - 0.0
22/01:30pm 34.6 32.8 13.4 28 12.9 W 15 20 8 11 1009.5 - 0.0
22/01:00pm 34.6 33.8 14.1 29 12.6 WSW 11 19 6 10 1009.9 - 0.0
22/12:30pm 34.4 31.9 8.2 20 14.7 S 11 15 6 8 1010.3 - 0.0
22/12:00pm 33.2 31.1 8.4 21 13.9 S 9 15 5 8 1010.8 1010.7 0.0
22/11:30am 32.9 30.5 8.7 22 13.6 S 11 17 6 9 1011.3 - 0.0
22/11:00am 31.8 30.7 13.1 32 11.2 S 11 17 6 9 1011.9 - 0.0
22/10:30am 30.9 29.6 13.8 35 10.3 S 13 19 7 10 1012.5 - 0.0
22/10:00am 31.0 29.2 12.1 31 11.1 S 13 19 7 10 1012.7 - 0.0
22/09:30am 30.1 29.6 15.9 42 8.8 S 13 20 7 11 1013.1 - 0.0
22/09:00am 29.2 31.1 22.1 65 4.8 S 15 20 8 11 1013.2 1013.1 0.0
22/08:30am 28.8 31.5 22.9 70 4.0 S 13 17 7 9 1013.0 - 0.0
22/08:00am 27.9 31.1 23.7 78 2.9 SSE 13 19 7 10 1012.8 - 0.0
22/07:30am 26.9 30.6 24.6 87 1.6 SSE 13 17 7 9 1012.8 - 0.0
22/07:00am 26.4 30.8 24.4 89 1.4 SE 9 13 5 7 1012.6 - 0.0
22/06:30am 24.9 28.3 22.7 87 1.5 S 9 19 5 10 1012.4 - 0.0
22/06:00am 21.4 25.6 20.9 97 0.3 CALM 0 0 0 0 1011.9 1011.8 0.0
22/05:30am 21.0 23.8 20.5 97 0.3 NNE 6 7 3 4 1011.7 - 0.0
22/05:00am 21.1 23.9 20.5 96 0.4 NNE 6 7 3 4 1011.5 - 0.0
22/04:30am 22.1 25.3 21.2 95 0.6 W 6 7 3 4 1011.3 - 0.0
22/04:00am 21.3 24.1 20.5 95 0.5 NNE 6 6 3 3 1011.3 - 0.0
22/03:30am 20.5 22.9 19.7 95 0.5 NNE 6 7 3 4 1011.2 - 0.0
22/03:00am 21.8 25.6 20.9 95 0.6 NNE 2 7 1 4 1011.2 1011.1 0.0
22/02:30am 21.4 24.3 20.6 95 0.5 NNE 6 9 3 5 1011.4 - 0.0
22/02:00am 21.9 26.1 21.0 95 0.6 CALM 0 4 0 2 1011.6 - 0.0
22/01:30am 22.1 26.4 21.2 95 0.6 CALM 0 0 0 0 1011.9 - 0.0
22/01:00am 22.5 26.9 21.4 93 0.7 CALM 0 0 0 0 1012.2 - 0.0
22/12:30am 22.3 26.9 21.7 96 0.4 CALM 0 0 0 0 1012.7 - 0.0
22/12:00am 22.8 27.4 21.7 93 0.7 CALM 0 6 0 3 1012.9 1012.8 0.0
 
Date/Time
WST
Temp
°C
App
Temp
°C
Dew
Point
Rel
Hum
%
Delta-T
°C
Wind Press
QNH
hPa
Press
MSL
hPa
Rain
since 9 am
mm
Dir
 
Spd
km/h
Gust
km/h
Spd
kts
Gust
kts
21/11:30pm 23.0 27.7 21.9 93 0.7 CALM 0 6 0 3 1013.2 - 0.0
21/11:00pm 22.8 26.2 21.6 93 0.8 N 6 7 3 4 1013.0 - 0.0
21/10:30pm 23.1 25.9 21.6 91 1.0 NNE 9 11 5 6 1012.9 - 0.0
21/10:00pm 23.9 27.2 21.5 86 1.6 NW 6 7 3 4 1012.8 - 0.0
21/09:30pm 25.2 28.7 21.9 82 2.2 W 6 9 3 5 1012.8 - 0.0
21/09:00pm 26.2 29.6 22.0 77 2.8 W 7 9 4 5 1012.8 1012.7 0.0
21/08:30pm 27.0 30.3 21.9 73 3.4 WNW 7 9 4 5 1012.5 - 0.0
21/08:00pm 27.7 31.3 23.0 75 3.2 W 9 11 5 6 1012.1 - 0.0
21/07:30pm 27.9 31.7 23.5 77 3.0 W 9 13 5 7 1011.8 - 0.0
21/07:00pm 28.1 32.1 23.7 77 3.0 WNW 9 13 5 7 1011.3 - 0.0
21/06:30pm 28.5 32.6 24.5 79 2.8 WNW 11 17 6 9 1011.0 - 0.0
21/06:00pm 28.7 32.7 24.4 77 3.0 WNW 11 17 6 9 1010.5 1010.4 0.0
21/05:30pm 29.4 32.9 24.2 73 3.6 WNW 13 19 7 10 1010.2 - 0.0
21/05:00pm 30.5 32.4 22.8 63 5.3 W 17 22 9 12 1009.8 - 0.0
21/04:30pm 31.7 33.1 21.1 53 7.1 W 15 22 8 12 1009.4 - 0.0
21/04:00pm 32.2 32.7 20.9 51 7.6 W 19 24 10 13 1009.2 - 0.0
21/03:30pm 33.9 32.4 15.3 32 11.6 W 17 20 9 11 1009.2 - 0.0
21/03:00pm 33.9 32.9 15.5 33 11.5 W 15 20 8 11 1009.0 1008.9 0.0
21/02:30pm 33.4 33.1 18.3 40 9.8 W 17 20 9 11 1009.2 - 0.0
21/02:00pm 33.8 32.6 16.2 35 11.1 W 17 22 9 12 1009.2 - 0.0
21/01:30pm 34.2 35.1 19.2 41 9.9 WSW 13 24 7 13 1009.4 - 0.0
21/01:00pm 34.3 33.4 12.7 27 13.0 SSE 9 13 5 7 1009.7 - 0.0
21/12:30pm 34.3 32.4 9.2 21 14.3 S 9 13 5 7 1010.0 - 0.0
21/12:00pm 33.6 32.6 12.3 27 12.7 S 9 13 5 7 1010.4 1010.3 0.0
21/11:30am 32.9 32.3 13.4 30 11.8 SE 9 15 5 8 1011.0 - 0.0
21/11:00am 32.0 32.0 15.2 36 10.4 SSE 9 13 5 7 1011.4 - 0.0
21/10:30am 30.8 31.7 17.6 45 8.4 SSE 9 15 5 8 1011.7 - 0.0
21/10:00am 30.2 31.9 20.2 55 6.6 SE 11 15 6 8 1011.9 - 0.0
21/09:30am 29.3 31.1 21.2 61 5.4 ESE 13 19 7 10 1012.2 - 0.0
21/09:00am 28.2 30.1 21.3 66 4.6 ESE 13 17 7 9 1012.3 1012.2 0.0
21/08:30am 27.4 30.0 22.0 72 3.6 ESE 11 13 6 7 1012.2 - 0.0
21/08:00am 26.2 29.2 22.0 77 2.8 ESE 9 11 5 6 1012.0 - 0.0
21/07:30am 24.5 27.3 21.6 84 1.9 E 9 13 5 7 1012.0 - 0.0
21/07:00am 22.9 26.1 21.2 90 1.1 ENE 6 7 3 4 1011.9 - 0.0
21/06:30am 21.4 24.2 20.5 95 0.6 E 6 7 3 4 1011.7 - 0.0
21/06:00am 20.8 23.8 20.8 100 0.0 E 6 9 3 5 1011.5 1011.4 0.0
21/05:30am 20.6 24.2 19.8 95 0.5 CALM 0 0 0 0 1011.1 - 0.0
21/05:00am 20.6 22.6 20.0 96 0.4 NNE 9 11 5 6 1010.9 - 0.0
21/04:30am 21.2 25.1 20.3 95 0.6 CALM 0 0 0 0 1010.4 - 0.0
21/04:00am 21.3 25.2 20.4 95 0.6 CALM 0 0 0 0 1010.3 - 0.0
21/03:30am 22.0 26.2 20.9 93 0.7 CALM 0 0 0 0 1010.2 - 0.0
21/03:00am 21.9 26.0 20.8 93 0.7 CALM 0 0 0 0 1010.1 1010.0 0.0
21/02:30am 22.1 26.4 21.2 95 0.6 CALM 0 0 0 0 1010.1 - 0.0
21/02:00am 22.5 26.7 21.0 91 1.0 CALM 0 0 0 0 1010.2 - 0.0
21/01:30am 22.9 27.3 21.4 91 1.0 CALM 0 0 0 0 1010.3 - 0.0
21/01:00am 24.0 27.6 21.3 85 1.8 N 4 11 2 6 1010.3 - 0.0
21/12:30am 22.9 26.2 21.4 91 1.0 NNW 6 7 3 4 1010.4 - 0.0
21/12:00am 22.7 26.1 21.0 90 1.1 N 4 6 2 3 1010.7 1010.6 0.0
 
Date/Time
WST
Temp
°C
App
Temp
°C
Dew
Point
Rel
Hum
%
Delta-T
°C
Wind Press
QNH
hPa
Press
MSL
hPa
Rain
since 9 am
mm
Dir
 
Spd
km/h
Gust
km/h
Spd
kts
Gust
kts
20/11:30pm 22.8 24.5 21.0 89 1.2 N 13 17 7 9 1010.7 - 0.0
20/11:00pm 23.0 25.8 21.5 91 1.0 NNE 9 11 5 6 1010.8 - 0.0
20/10:30pm 24.2 28.9 21.9 87 1.5 CALM 0 6 0 3 1010.8 - 0.0
20/10:00pm 27.2 30.8 22.3 74 3.3 WSW 7 9 4 5 1010.8 - 0.0
20/09:30pm 27.4 31.2 22.8 76 3.1 W 7 11 4 6 1011.0 - 0.0
20/09:00pm 27.8 30.9 22.8 74 3.4 W 11 15 6 8 1011.0 1010.9 0.0

Other Formats:

Comma delimited format used in spreadsheet applications
http://www.bom.gov.au/fwo/IDW60801/IDW60801.94203.axf

JavaScript Object Notation format (JSON) in row-major order
http://www.bom.gov.au/fwo/IDW60801/IDW60801.94203.json